Decoded Metar for GCLA (LA PALMA in SPAIN) (IATA:SPC) | Meteo·Mobile Aviation Weather
aviador You're here:

GCLA Decoded Metar

LA PALMA in SPAIN
Report Time2020-02-25 22:00:00
UTC Time2020-02-25 22:09:47
Flight Rules vfr VFR
Wind320° at 08 kt
W.Decomp.*RWY 01: 5.9 kt HW 5.5 kt LCW
Visibility9999 m
Phenomena:N/A
Clouds:N/A
Expected CloudBase > 8,800 ft AGL from Temp-Dew spread
CeilingNone
Temp22°C (ISA +7)
Dew Point00°C (23% RH)
AAT17.1°C
QNH1026 hPa
Density Alt594 ft
Elevation102 ft
Report Wrong Elevation
Raw Report
METAR GCLA 252200Z 32008KT CAVOK 22/00 Q1026=

Extra information for GCLA:More info

Metar Taf Metar & Taf Last 4 Metars F.Rules Stats Wind Profile Meteogram Temp Stats Airport Information Weather charts Add Link Nearby VenuesMetar ALERT Operation Metar Decoded Social comments